Grand Ruby — 3EIU3 — position and weather

sailwx.info

Track history (hours):
 
Tides and Currents Weather Stations Pressure Air Temp Water Temp Dewpoint Dewpoint Depression Visibility Wind Speed Wind Dir Waves Ship Positions

Grand Ruby

Last reported at 2014-Sep-26 07:24 UTC. Time now 2014-Oct-02 10:39 UTC.
Position N 01°18' E 103°21'.

Length 200 m; draft 9.7 m.

Type: Cargo ship. MMSI: 372399000.

Date/timePositionNaut miles runAvg speedWind from/ knotsBaromVisibWave heightAir tempDewpointWater temp
2014-Sep-26 07:24N 01°18' E 103°21'1315.8
2014-Sep-26 06:33N 01°12' E 103°33'1414.3
2014-Sep-26 05:33N 01°10' E 103°47'5 4.6
2014-Sep-26 04:32N 01°14' E 103°49'0 0.0
2014-Sep-26 03:32N 01°14' E 103°49'0 0.0
2014-Sep-26 02:32N 01°14' E 103°49'0 0.0
2014-Sep-26 01:32N 01°14' E 103°49'0 0.0
2014-Sep-26 00:32N 01°14' E 103°49'0 0.1
2014-Sep-25 23:32N 01°14' E 103°49'0 0.1
2014-Sep-25 22:32N 01°14' E 103°49'0 0.0
2014-Sep-25 21:32N 01°14' E 103°49'0 0.0
2014-Sep-25 20:32N 01°14' E 103°49'0 0.0
2014-Sep-25 19:32N 01°14' E 103°49'0 0.0
2014-Sep-25 18:29N 01°14' E 103°49'1 1.3
2014-Sep-25 17:33N 01°15' E 103°48'4 3.5
2014-Sep-25 16:33N 01°17' E 103°45'0 0.0
2014-Sep-25 15:31N 01°17' E 103°45'0 0.0
2014-Sep-25 14:31N 01°17' E 103°45'0 0.0
2014-Sep-25 13:31N 01°17' E 103°45'0 0.0
2014-Sep-25 12:31N 01°17' E 103°45'0 0.0
2014-Sep-25 11:31N 01°17' E 103°45'0 0.0
2014-Sep-25 10:31N 01°17' E 103°45'0 0.0
2014-Sep-25 09:31N 01°17' E 103°45'0 0.0
2014-Sep-25 08:31N 01°17' E 103°45'0 0.0
2014-Sep-25 07:31N 01°17' E 103°45'0 0.0
2014-Sep-25 06:31N 01°17' E 103°45'1 0.7
2014-Sep-25 05:33N 01°17' E 103°45'8 8.3
2014-Sep-25 04:33N 01°13' E 103°53'3 2.7
2014-Sep-25 03:33N 01°14' E 103°55'7 7.0
2014-Sep-25 02:33N 01°16' E 104°02'  
2014-Sep-21 15:33N 21°57' E 113°52'1313.5
2014-Sep-21 14:34N 22°09' E 113°48'1211.6
2014-Sep-21 13:33N 22°21' E 113°47'1514.8
2014-Sep-21 12:33N 22°35' E 113°43'1311.8
2014-Sep-21 11:27N 22°47' E 113°38'910.2
2014-Sep-21 10:33N 22°55' E 113°34'6 5.5
2014-Sep-21 09:33N 23°01' E 113°32'0 0.0
2014-Sep-21 08:15N 23°01' E 113°32'0 0.0
2014-Sep-21 07:33N 23°01' E 113°32'0 0.0
2014-Sep-21 06:27N 23°01' E 113°32'0 0.0
2014-Sep-21 05:27N 23°01' E 113°32'0 0.2
2014-Sep-21 04:33N 23°01' E 113°32'9 8.9
2014-Sep-21 03:33N 22°52' E 113°34'1111.3
2014-Sep-21 02:32N 22°42' E 113°41'1010.5
2014-Sep-21 01:33N 22°32' E 113°44'1312.9
2014-Sep-21 00:33N 22°20' E 113°48'1111.2
2014-Sep-20 23:33N 22°09' E 113°48'6 5.0
2014-Sep-20 22:24N 22°06' E 113°53'0 0.0
2014-Sep-20 21:30N 22°06' E 113°53'0 0.0
2014-Sep-20 20:24N 22°06' E 113°53'0 0.0
2014-Sep-20 19:30N 22°06' E 113°53'0 0.0
2014-Sep-20 18:24N 22°06' E 113°53'0 0.0
2014-Sep-20 15:30N 22°06' E 113°53'0 0.1
2014-Sep-20 14:30N 22°06' E 113°53'0 0.0
2014-Sep-20 13:18N 22°06' E 113°53'0 0.1
2014-Sep-20 12:27N 22°06' E 113°53'7 7.4
2014-Sep-20 11:32N 22°08' E 114°00'18917.2
2014-Sep-20 00:33N 23°02' E 117°16'4217.4
2014-Sep-19 22:07N 23°28' E 117°53'1017.3
2014-Sep-19 21:33N 23°34' E 118°01'1817.9
2014-Sep-19 20:33N 23°45' E 118°16'2618.6
2014-Sep-19 19:10N 24°02' E 118°37'4818.2
2014-Sep-19 16:31N 24°33' E 119°18'40817.6
2014-Sep-18 17:21N 30°28' E 123°05'1518.8
2014-Sep-18 16:33N 30°43' E 123°00'1918.6
2014-Sep-18 15:31N 30°60' E 122°51'1817.2
2014-Sep-18 14:30N 31°05' E 122°31'1212.4
2014-Sep-18 13:32N 31°07' E 122°18'2914.7
2014-Sep-18 11:32N 31°18' E 121°46'5 1.4
2014-Sep-18 08:09N 31°19' E 121°41'0 0.0
2014-Sep-17 23:33N 31°19' E 121°41'3 3.0
2014-Sep-17 22:33N 31°19' E 121°44'1010.0
2014-Sep-17 21:32N 31°16' E 121°55'20 8.7
2014-Sep-17 19:15N 31°07' E 122°17'8 7.4
2014-Sep-17 18:06N 31°06' E 122°26'8 2.1
2014-Sep-17 14:27N 31°09' E 122°35'0 0.0
2014-Sep-17 13:15N 31°09' E 122°35'2 0.3
2014-Sep-17 06:14N 31°08' E 122°37'3115.8
2014-Sep-17 04:16N 31°32' E 123°01'1217.7
2014-Sep-17 03:34N 31°43' E 123°08'1817.4
2014-Sep-17 02:33N 31°58' E 123°19'3417.0
2014-Sep-17 00:33N 32°26' E 123°42'1816.6
2014-Sep-16 23:29N 32°41' E 123°53'1616.8
2014-Sep-16 22:33N 32°54' E 124°03'1716.8
2014-Sep-16 21:33N 33°08' E 124°14'1716.8
2014-Sep-16 20:32N 33°23' E 124°24'2016.8
2014-Sep-16 19:20N 33°40' E 124°37'1517.0
2014-Sep-16 18:28N 33°52' E 124°47'1617.1
2014-Sep-16 17:31N 34°06' E 124°58'1616.1
2014-Sep-16 16:31N 34°13' E 125°15'1717.0
2014-Sep-16 15:33N 34°18' E 125°34'3214.6
2014-Sep-16 13:22N 34°31' E 126°09'  
Track history (hours):
 
Tides and Currents Weather Stations Pressure Air Temp Water Temp Dewpoint Dewpoint Depression Visibility Wind Speed Wind Dir Waves Ship Positions

Grand Ruby

Last reported at 2014-Sep-26 07:24 UTC. Time now 2014-Oct-02 10:39 UTC.
Position N 01°18' E 103°21'.

Length 200 m; draft 9.7 m.

Type: Cargo ship. MMSI: 372399000.

Date/timePositionNaut miles runAvg speedWind from/ knotsBaromVisibWave heightAir tempDewpointWater temp
2014-Sep-26 07:24N 01°18' E 103°21'1315.8
2014-Sep-26 06:33N 01°12' E 103°33'1414.3
2014-Sep-26 05:33N 01°10' E 103°47'5 4.6
2014-Sep-26 04:32N 01°14' E 103°49'0 0.0
2014-Sep-26 03:32N 01°14' E 103°49'0 0.0
2014-Sep-26 02:32N 01°14' E 103°49'0 0.0
2014-Sep-26 01:32N 01°14' E 103°49'0 0.0
2014-Sep-26 00:32N 01°14' E 103°49'0 0.1
2014-Sep-25 23:32N 01°14' E 103°49'0 0.1
2014-Sep-25 22:32N 01°14' E 103°49'0 0.0
2014-Sep-25 21:32N 01°14' E 103°49'0 0.0
2014-Sep-25 20:32N 01°14' E 103°49'0 0.0
2014-Sep-25 19:32N 01°14' E 103°49'0 0.0
2014-Sep-25 18:29N 01°14' E 103°49'1 1.3
2014-Sep-25 17:33N 01°15' E 103°48'4 3.5
2014-Sep-25 16:33N 01°17' E 103°45'0 0.0
2014-Sep-25 15:31N 01°17' E 103°45'0 0.0
2014-Sep-25 14:31N 01°17' E 103°45'0 0.0
2014-Sep-25 13:31N 01°17' E 103°45'0 0.0
2014-Sep-25 12:31N 01°17' E 103°45'0 0.0
2014-Sep-25 11:31N 01°17' E 103°45'0 0.0
2014-Sep-25 10:31N 01°17' E 103°45'0 0.0
2014-Sep-25 09:31N 01°17' E 103°45'0 0.0
2014-Sep-25 08:31N 01°17' E 103°45'0 0.0
2014-Sep-25 07:31N 01°17' E 103°45'0 0.0
2014-Sep-25 06:31N 01°17' E 103°45'1 0.7
2014-Sep-25 05:33N 01°17' E 103°45'8 8.3
2014-Sep-25 04:33N 01°13' E 103°53'3 2.7
2014-Sep-25 03:33N 01°14' E 103°55'7 7.0
2014-Sep-25 02:33N 01°16' E 104°02'  
2014-Sep-21 15:33N 21°57' E 113°52'1313.5
2014-Sep-21 14:34N 22°09' E 113°48'1211.6
2014-Sep-21 13:33N 22°21' E 113°47'1514.8
2014-Sep-21 12:33N 22°35' E 113°43'1311.8
2014-Sep-21 11:27N 22°47' E 113°38'910.2
2014-Sep-21 10:33N 22°55' E 113°34'6 5.5
2014-Sep-21 09:33N 23°01' E 113°32'0 0.0
2014-Sep-21 08:15N 23°01' E 113°32'0 0.0
2014-Sep-21 07:33N 23°01' E 113°32'0 0.0
2014-Sep-21 06:27N 23°01' E 113°32'0 0.0
2014-Sep-21 05:27N 23°01' E 113°32'0 0.2
2014-Sep-21 04:33N 23°01' E 113°32'9 8.9
2014-Sep-21 03:33N 22°52' E 113°34'1111.3
2014-Sep-21 02:32N 22°42' E 113°41'1010.5
2014-Sep-21 01:33N 22°32' E 113°44'1312.9
2014-Sep-21 00:33N 22°20' E 113°48'1111.2
2014-Sep-20 23:33N 22°09' E 113°48'6 5.0
2014-Sep-20 22:24N 22°06' E 113°53'0 0.0
2014-Sep-20 21:30N 22°06' E 113°53'0 0.0
2014-Sep-20 20:24N 22°06' E 113°53'0 0.0
2014-Sep-20 19:30N 22°06' E 113°53'0 0.0
2014-Sep-20 18:24N 22°06' E 113°53'0 0.0
2014-Sep-20 15:30N 22°06' E 113°53'0 0.1
2014-Sep-20 14:30N 22°06' E 113°53'0 0.0
2014-Sep-20 13:18N 22°06' E 113°53'0 0.1
2014-Sep-20 12:27N 22°06' E 113°53'7 7.4
2014-Sep-20 11:32N 22°08' E 114°00'18917.2
2014-Sep-20 00:33N 23°02' E 117°16'4217.4
2014-Sep-19 22:07N 23°28' E 117°53'1017.3
2014-Sep-19 21:33N 23°34' E 118°01'1817.9
2014-Sep-19 20:33N 23°45' E 118°16'2618.6
2014-Sep-19 19:10N 24°02' E 118°37'4818.2
2014-Sep-19 16:31N 24°33' E 119°18'40817.6
2014-Sep-18 17:21N 30°28' E 123°05'1518.8
2014-Sep-18 16:33N 30°43' E 123°00'1918.6
2014-Sep-18 15:31N 30°60' E 122°51'1817.2
2014-Sep-18 14:30N 31°05' E 122°31'1212.4
2014-Sep-18 13:32N 31°07' E 122°18'2914.7
2014-Sep-18 11:32N 31°18' E 121°46'5 1.4
2014-Sep-18 08:09N 31°19' E 121°41'0 0.0
2014-Sep-17 23:33N 31°19' E 121°41'3 3.0
2014-Sep-17 22:33N 31°19' E 121°44'1010.0
2014-Sep-17 21:32N 31°16' E 121°55'20 8.7
2014-Sep-17 19:15N 31°07' E 122°17'8 7.4
2014-Sep-17 18:06N 31°06' E 122°26'8 2.1
2014-Sep-17 14:27N 31°09' E 122°35'0 0.0
2014-Sep-17 13:15N 31°09' E 122°35'2 0.3
2014-Sep-17 06:14N 31°08' E 122°37'3115.8
2014-Sep-17 04:16N 31°32' E 123°01'1217.7
2014-Sep-17 03:34N 31°43' E 123°08'1817.4
2014-Sep-17 02:33N 31°58' E 123°19'3417.0
2014-Sep-17 00:33N 32°26' E 123°42'1816.6
2014-Sep-16 23:29N 32°41' E 123°53'1616.8
2014-Sep-16 22:33N 32°54' E 124°03'1716.8
2014-Sep-16 21:33N 33°08' E 124°14'1716.8
2014-Sep-16 20:32N 33°23' E 124°24'2016.8
2014-Sep-16 19:20N 33°40' E 124°37'1517.0
2014-Sep-16 18:28N 33°52' E 124°47'1617.1
2014-Sep-16 17:31N 34°06' E 124°58'1616.1
2014-Sep-16 16:31N 34°13' E 125°15'1717.0
2014-Sep-16 15:33N 34°18' E 125°34'3214.6
2014-Sep-16 13:22N 34°31' E 126°09'  

Dump ship's entire track history